createdAt,value
2019-03-01T00:05:39.802Z,95.60
2019-03-01T00:08:46.162Z,96.06
2019-03-01T00:11:26.073Z,97.38
2019-03-01T00:14:03.776Z,97.35
2019-03-01T00:17:09.764Z,96.90
2019-03-01T00:20:15.659Z,97.46
2019-03-01T00:23:21.594Z,97.82
2019-03-01T00:26:11.616Z,98.32
2019-03-01T00:29:17.777Z,97.59
2019-03-01T00:32:07.147Z,97.51
2019-03-01T00:35:13.375Z,97.95
2019-03-01T00:38:05.658Z,98.34
2019-03-01T00:41:11.569Z,99.19
2019-03-01T00:44:17.455Z,98.68
2019-03-01T00:46:44.334Z,98.49
2019-03-01T00:49:11.453Z,98.90
2019-03-01T00:51:38.814Z,99.40
2019-03-01T00:54:05.772Z,99.84
2019-03-01T00:56:32.415Z,100.00
2019-03-01T00:58:59.151Z,100.00
2019-03-01T01:01:26.398Z,100.00
2019-03-01T01:03:53.422Z,100.00
2019-03-01T01:06:20.162Z,100.00
2019-03-01T01:08:47.683Z,100.00
2019-03-01T01:11:14.567Z,100.00
2019-03-01T01:13:54.213Z,100.00
2019-03-01T01:16:21.029Z,100.00
2019-03-01T01:18:48.270Z,100.00
2019-03-01T01:21:15.147Z,100.00
2019-03-01T01:23:41.892Z,100.00
2019-03-01T01:26:09.043Z,100.00
2019-03-01T01:28:36.116Z,100.00
2019-03-01T01:31:02.847Z,100.00
2019-03-01T01:33:29.983Z,100.00
2019-03-01T01:35:56.781Z,100.00
2019-03-01T01:38:23.525Z,100.00
2019-03-01T01:40:50.269Z,100.00
2019-03-01T01:43:17.440Z,100.00
2019-03-01T01:45:44.282Z,100.00
2019-03-01T01:48:11.125Z,100.00
2019-03-01T01:50:38.092Z,100.00
2019-03-01T01:53:04.839Z,100.00
2019-03-01T01:55:31.860Z,100.00
2019-03-01T01:57:58.861Z,100.00
2019-03-01T02:00:25.619Z,100.00
2019-03-01T02:02:52.461Z,99.78
2019-03-01T02:05:19.371Z,99.27
2019-03-01T02:07:46.107Z,98.84
2019-03-01T02:10:32.814Z,99.01
2019-03-01T02:12:59.925Z,100.00
2019-03-01T02:15:39.030Z,100.00
2019-03-01T02:18:05.787Z,100.00
2019-03-01T02:20:32.723Z,100.00
2019-03-01T02:23:00.002Z,100.00
2019-03-01T02:25:27.035Z,100.00
2019-03-01T02:27:53.791Z,100.00
2019-03-01T02:30:22.788Z,100.00
2019-03-01T02:32:50.145Z,98.89
2019-03-01T02:35:19.179Z,98.15
2019-03-01T02:37:46.124Z,98.76
2019-03-01T02:40:13.115Z,97.85
2019-03-01T02:42:39.964Z,97.84
2019-03-01T02:45:08.644Z,98.10
2019-03-01T02:47:35.396Z,98.46
2019-03-01T02:50:02.155Z,97.43
2019-03-01T02:52:28.937Z,98.48
2019-03-01T02:54:55.952Z,99.97
2019-03-01T02:57:23.080Z,100.00
2019-03-01T02:59:50.056Z,98.83
2019-03-01T03:02:17.136Z,98.77
2019-03-01T03:04:44.011Z,99.44
2019-03-01T03:07:30.494Z,100.00
2019-03-01T03:09:57.243Z,100.00
2019-03-01T03:12:24.283Z,100.00
2019-03-01T03:14:51.398Z,100.00
2019-03-01T03:17:18.178Z,100.00
2019-03-01T03:19:45.194Z,100.00
2019-03-01T03:22:12.057Z,100.00
2019-03-01T03:24:38.918Z,100.00
2019-03-01T03:27:05.865Z,100.00
2019-03-01T03:29:33.243Z,100.00
2019-03-01T03:31:59.993Z,100.00
2019-03-01T03:34:26.742Z,100.00
2019-03-01T03:36:54.148Z,100.00
2019-03-01T03:39:20.897Z,100.00
2019-03-01T03:41:47.650Z,100.00
2019-03-01T03:44:14.805Z,100.00
2019-03-01T03:46:41.646Z,100.00
2019-03-01T03:49:08.478Z,100.00
2019-03-01T03:51:35.563Z,100.00
2019-03-01T03:56:25.247Z,100.00
2019-03-01T03:58:52.446Z,100.00
2019-03-01T04:01:19.538Z,100.00
2019-03-01T04:03:46.812Z,100.00
2019-03-01T04:06:14.047Z,100.00
2019-03-01T04:08:41.139Z,100.00
2019-03-01T04:11:08.692Z,100.00
2019-03-01T04:13:35.928Z,100.00
2019-03-01T04:16:03.460Z,100.00
2019-03-01T04:18:30.618Z,100.00
2019-03-01T04:20:58.131Z,100.00
2019-03-01T04:23:25.411Z,100.00
2019-03-01T04:25:52.500Z,100.00
2019-03-01T04:28:19.642Z,100.00
2019-03-01T04:30:46.753Z,100.00
2019-03-01T04:33:14.145Z,100.00
2019-03-01T04:35:41.360Z,100.00
2019-03-01T04:38:08.866Z,100.00
2019-03-01T04:40:36.276Z,100.00
2019-03-01T04:43:03.500Z,100.00
2019-03-01T04:45:30.577Z,100.00
2019-03-01T04:47:57.668Z,100.00
2019-03-01T04:50:24.817Z,100.00
2019-03-01T04:52:51.905Z,100.00
2019-03-01T04:55:21.402Z,100.00
2019-03-01T04:57:48.609Z,100.00
2019-03-01T05:00:17.682Z,100.00
2019-03-01T05:02:44.772Z,100.00
2019-03-01T05:05:34.732Z,100.00
2019-03-01T05:08:01.822Z,100.00
2019-03-01T05:10:29.206Z,100.00
2019-03-01T05:12:56.421Z,100.00
2019-03-01T05:15:23.610Z,100.00
2019-03-01T05:17:50.824Z,100.00
2019-03-01T05:20:18.740Z,100.00
2019-03-01T05:22:46.162Z,100.00
2019-03-01T05:25:13.530Z,100.00
2019-03-01T05:27:42.916Z,100.00
2019-03-01T05:30:11.598Z,100.00
2019-03-01T05:32:41.203Z,100.00
2019-03-01T05:35:30.063Z,100.00
2019-03-01T05:37:57.160Z,100.00
2019-03-01T05:40:24.058Z,100.00
2019-03-01T05:42:51.023Z,100.00
2019-03-01T05:45:20.357Z,100.00
2019-03-01T05:47:47.640Z,100.00
2019-03-01T05:50:14.683Z,100.00
2019-03-01T05:52:41.433Z,100.00
2019-03-01T05:55:08.340Z,100.00
2019-03-01T05:57:35.645Z,100.00
2019-03-01T06:03:20.446Z,100.00
2019-03-01T06:05:47.585Z,100.00
2019-03-01T06:08:30.595Z,100.00
2019-03-01T06:17:32.106Z,100.00
2019-03-01T06:20:38.041Z,100.00
2019-03-01T06:23:44.183Z,100.00
2019-03-01T06:26:35.552Z,100.00
2019-03-01T06:29:41.632Z,100.00
2019-03-01T06:32:48.079Z,100.00
2019-03-01T06:35:54.163Z,100.00
2019-03-01T06:39:19.808Z,100.00
2019-03-01T06:45:05.056Z,100.00
2019-03-01T06:47:51.620Z,100.00
2019-03-01T06:50:32.257Z,100.00
2019-03-01T06:52:59.435Z,100.00
2019-03-01T06:55:47.344Z,100.00
2019-03-01T06:58:37.717Z,100.00
2019-03-01T07:01:24.261Z,100.00
2019-03-01T07:06:43.252Z,100.00
2019-03-01T07:09:10.787Z,100.00
2019-03-01T07:11:37.862Z,100.00
2019-03-01T07:14:05.515Z,100.00
2019-03-01T07:16:32.545Z,100.00
2019-03-01T07:18:59.578Z,100.00
2019-03-01T07:21:26.365Z,100.00
2019-03-01T07:23:53.225Z,100.00
2019-03-01T07:26:20.255Z,100.00
2019-03-01T07:28:47.817Z,100.00
2019-03-01T07:31:14.949Z,100.00
2019-03-01T07:33:41.734Z,100.00
2019-03-01T07:36:08.896Z,100.00
2019-03-01T07:38:35.641Z,100.00
2019-03-01T07:41:02.382Z,100.00
2019-03-01T07:43:29.218Z,100.00
2019-03-01T07:45:56.826Z,100.00
2019-03-01T07:48:25.687Z,100.00
2019-03-01T07:50:55.251Z,100.00
2019-03-01T07:53:21.603Z,100.00
2019-03-01T07:55:48.488Z,100.00
2019-03-01T07:58:15.382Z,100.00
2019-03-01T08:00:42.245Z,100.00
2019-03-01T08:03:11.995Z,100.00
2019-03-01T08:05:39.400Z,100.00
2019-03-01T08:08:07.410Z,100.00
2019-03-01T08:10:34.558Z,100.00
2019-03-01T08:13:01.548Z,100.00
2019-03-01T08:15:28.402Z,100.00
2019-03-01T08:17:55.877Z,100.00
2019-03-01T08:20:23.064Z,100.00
2019-03-01T08:22:49.890Z,100.00
2019-03-01T08:25:22.507Z,100.00
2019-03-01T08:27:46.346Z,100.00
2019-03-01T08:30:14.788Z,100.00
2019-03-01T08:32:41.645Z,100.00
2019-03-01T08:35:09.925Z,100.00
2019-03-01T08:37:36.889Z,100.00
2019-03-01T08:40:06.049Z,100.00
2019-03-01T08:42:36.343Z,100.00
2019-03-01T08:45:02.905Z,100.00
2019-03-01T08:47:31.259Z,100.00
2019-03-01T08:49:58.125Z,100.00
2019-03-01T08:52:25.416Z,100.00
2019-03-01T08:54:52.333Z,100.00
2019-03-01T08:57:22.699Z,100.00
2019-03-01T08:59:48.425Z,100.00
2019-03-01T09:02:15.343Z,100.00
2019-03-01T09:04:50.684Z,100.00
2019-03-01T09:07:31.366Z,100.00
2019-03-01T09:09:59.515Z,100.00
2019-03-01T09:12:27.149Z,100.00
2019-03-01T09:14:54.291Z,100.00
2019-03-01T09:17:21.546Z,100.00
2019-03-01T09:19:49.550Z,100.00
2019-03-01T09:22:16.794Z,100.00
2019-03-01T09:24:43.921Z,100.00
2019-03-01T09:27:11.073Z,100.00
2019-03-01T09:29:42.071Z,100.00
2019-03-01T09:32:07.359Z,100.00
2019-03-01T09:34:34.129Z,100.00
2019-03-01T09:37:01.200Z,100.00
2019-03-01T09:39:28.384Z,100.00
2019-03-01T09:42:02.870Z,100.00
2019-03-01T09:44:24.742Z,100.00
2019-03-01T09:46:52.587Z,100.00
2019-03-01T09:49:21.456Z,100.00
2019-03-01T09:51:49.996Z,100.00
2019-03-01T09:54:17.664Z,100.00
2019-03-01T09:56:45.192Z,100.00
2019-03-01T09:59:12.708Z,100.00
2019-03-01T10:01:39.907Z,100.00
2019-03-01T10:04:07.046Z,100.00
2019-03-01T10:06:38.028Z,100.00
2019-03-01T10:09:44.101Z,100.00
2019-03-01T10:12:11.242Z,100.00
2019-03-01T10:14:38.359Z,100.00
2019-03-01T10:17:05.538Z,100.00
2019-03-01T10:19:32.845Z,100.00
2019-03-01T10:21:59.947Z,100.00
2019-03-01T10:24:27.855Z,100.00
2019-03-01T10:26:55.342Z,100.00
2019-03-01T10:29:22.869Z,100.00
2019-03-01T10:31:50.519Z,100.00
2019-03-01T10:34:18.025Z,100.00
2019-03-01T10:36:45.142Z,100.00
2019-03-01T10:39:14.441Z,100.00
2019-03-01T10:41:41.920Z,100.00
2019-03-01T10:44:09.029Z,100.00
2019-03-01T10:46:37.035Z,100.00
2019-03-01T10:49:04.138Z,100.00
2019-03-01T10:51:31.347Z,100.00
2019-03-01T10:53:58.493Z,99.92
2019-03-01T10:56:26.020Z,99.07
2019-03-01T10:58:53.133Z,99.68
2019-03-01T11:01:20.292Z,100.00
2019-03-01T11:03:47.503Z,100.00
2019-03-01T11:06:14.766Z,100.00
2019-03-01T11:08:42.243Z,100.00
2019-03-01T11:11:10.111Z,99.49
2019-03-01T11:13:37.226Z,98.60
2019-03-01T11:16:04.876Z,99.20
2019-03-01T11:18:32.463Z,99.49
2019-03-01T11:20:59.597Z,99.39
2019-03-01T11:23:27.062Z,99.44
2019-03-01T11:25:54.178Z,100.00
2019-03-01T11:28:21.761Z,99.92
2019-03-01T11:30:49.003Z,100.00
2019-03-01T11:33:16.458Z,100.00
2019-03-01T11:35:43.555Z,100.00
2019-03-01T11:38:10.738Z,100.00
2019-03-01T11:40:38.221Z,100.00
2019-03-01T11:43:05.440Z,100.00
2019-03-01T11:45:52.198Z,99.94
2019-03-01T11:48:19.780Z,100.00
2019-03-01T11:50:47.160Z,100.00
2019-03-01T11:53:14.080Z,100.00
2019-03-01T11:55:40.833Z,100.00
2019-03-01T11:58:07.599Z,98.54
2019-03-01T12:00:34.440Z,97.27
2019-03-01T12:03:01.180Z,97.17
2019-03-01T12:05:28.027Z,96.28
2019-03-01T12:07:55.557Z,96.65
2019-03-01T12:13:11.705Z,95.96
2019-03-01T12:15:38.847Z,96.71
2019-03-01T12:18:05.618Z,96.81
2019-03-01T12:20:32.434Z,96.44
2019-03-01T12:23:00.106Z,95.48
2019-03-01T12:25:26.867Z,96.00
2019-03-01T12:27:53.796Z,94.35
2019-03-01T12:30:20.887Z,94.65
2019-03-01T12:32:48.399Z,94.65
2019-03-01T12:35:15.391Z,94.42
2019-03-01T12:37:42.633Z,96.01
2019-03-01T12:40:12.265Z,94.78
2019-03-01T12:42:39.419Z,95.17
2019-03-01T12:45:07.373Z,94.97
2019-03-01T12:47:34.137Z,94.55
2019-03-01T12:50:01.282Z,95.21
2019-03-01T12:52:28.548Z,95.98
2019-03-01T12:54:55.350Z,95.50
2019-03-01T12:57:22.280Z,95.23
2019-03-01T12:59:49.075Z,95.33
2019-03-01T13:02:16.115Z,94.24
2019-03-01T13:04:42.901Z,93.30
2019-03-01T13:07:10.543Z,94.80
2019-03-01T13:09:38.590Z,93.23
2019-03-01T13:12:05.739Z,92.08
2019-03-01T13:14:33.078Z,92.37
2019-03-01T13:17:01.764Z,92.94
2019-03-01T13:19:28.729Z,93.29
2019-03-01T13:21:55.758Z,93.16
2019-03-01T13:24:22.780Z,92.92
2019-03-01T13:26:49.566Z,93.19
2019-03-01T13:29:19.093Z,92.88
2019-03-01T13:31:47.127Z,93.08
2019-03-01T13:34:14.494Z,93.53
2019-03-01T13:36:43.217Z,93.98
2019-03-01T13:39:10.424Z,93.47
2019-03-01T13:41:39.103Z,93.18
2019-03-01T13:44:06.613Z,92.46
2019-03-01T13:46:33.764Z,93.36
2019-03-01T13:49:00.926Z,93.50
2019-03-01T13:51:28.639Z,94.04
2019-03-01T13:53:56.126Z,94.29
2019-03-01T13:56:23.354Z,93.95
2019-03-01T13:58:50.454Z,94.35
2019-03-01T14:01:17.571Z,94.38
2019-03-01T14:03:45.240Z,95.16
2019-03-01T14:06:12.324Z,95.02
2019-03-01T14:08:39.419Z,96.64
2019-03-01T14:11:06.572Z,96.97
2019-03-01T14:13:52.822Z,97.92
2019-03-01T14:16:20.539Z,98.61
2019-03-01T14:18:48.287Z,98.24
2019-03-01T14:21:15.155Z,98.14
2019-03-01T14:23:41.945Z,97.35
2019-03-01T14:26:09.215Z,96.25
2019-03-01T14:28:38.029Z,95.99
2019-03-01T14:31:24.697Z,91.88
2019-03-01T14:33:51.946Z,92.31
2019-03-01T14:36:31.444Z,90.67
2019-03-01T14:38:58.576Z,91.43
2019-03-01T14:41:25.368Z,90.55
2019-03-01T14:43:52.440Z,88.23
2019-03-01T14:46:20.898Z,87.90
2019-03-01T14:48:48.650Z,88.97
2019-03-01T14:51:15.549Z,86.01
2019-03-01T14:54:02.408Z,84.81
2019-03-01T14:56:34.888Z,83.99
2019-03-01T14:59:25.045Z,82.49
2019-03-01T15:02:31.015Z,81.57
2019-03-01T15:05:01.342Z,79.76
2019-03-01T15:07:30.788Z,80.01
2019-03-01T15:09:58.181Z,79.30
2019-03-01T15:12:24.981Z,78.87
2019-03-01T15:14:51.733Z,79.24
2019-03-01T15:17:21.800Z,80.40
2019-03-01T15:20:08.501Z,78.12
2019-03-01T15:22:36.393Z,78.13
2019-03-01T15:25:03.750Z,79.44
2019-03-01T15:27:31.077Z,78.69
2019-03-01T15:29:58.465Z,79.33
2019-03-01T15:32:26.100Z,78.91
2019-03-01T15:34:53.545Z,79.14
2019-03-01T15:37:40.472Z,78.39
2019-03-01T15:40:07.498Z,76.25
2019-03-01T15:45:30.747Z,76.06
2019-03-01T15:47:58.815Z,75.86
2019-03-01T15:50:28.261Z,77.10
2019-03-01T15:52:57.632Z,78.35
2019-03-01T15:55:26.643Z,76.50
2019-03-01T15:57:56.409Z,74.94
2019-03-01T16:00:25.535Z,72.86
2019-03-01T16:02:54.099Z,73.26
2019-03-01T16:05:22.012Z,75.12
2019-03-01T16:07:49.200Z,73.14
2019-03-01T16:10:16.474Z,71.95
2019-03-01T16:12:43.771Z,72.87
2019-03-01T16:15:11.956Z,72.46
2019-03-01T16:17:39.612Z,72.68
2019-03-01T16:20:09.407Z,71.22
2019-03-01T16:22:36.539Z,70.75
2019-03-01T16:25:04.363Z,71.54
2019-03-01T16:27:31.236Z,69.91
2019-03-01T16:29:59.279Z,70.40
2019-03-01T16:32:26.697Z,69.63
2019-03-01T16:34:53.649Z,68.99
2019-03-01T16:37:22.692Z,70.02
2019-03-01T16:39:49.391Z,68.54
2019-03-01T16:42:17.984Z,68.62
2019-03-01T16:44:45.685Z,68.97
2019-03-01T16:47:13.161Z,68.80
2019-03-01T16:50:02.779Z,68.24
2019-03-01T16:52:30.231Z,69.13
2019-03-01T16:54:57.467Z,69.97
2019-03-01T16:57:25.032Z,70.64
2019-03-01T16:59:52.096Z,69.72
2019-03-01T17:02:19.439Z,72.22
2019-03-01T17:04:46.694Z,73.01
2019-03-01T17:07:13.655Z,73.68
2019-03-01T17:10:00.765Z,73.35
2019-03-01T17:12:28.598Z,72.79
2019-03-01T17:14:55.711Z,70.23
2019-03-01T17:17:22.896Z,71.54
2019-03-01T17:19:50.547Z,70.56
2019-03-01T17:22:17.671Z,70.33
2019-03-01T17:24:48.215Z,71.80
2019-03-01T17:27:14.234Z,71.43
2019-03-01T17:29:41.357Z,70.91
2019-03-01T17:32:08.749Z,70.61
2019-03-01T17:34:36.356Z,70.10
2019-03-01T17:37:25.878Z,72.01
2019-03-01T17:39:53.105Z,70.41
2019-03-01T17:42:20.703Z,70.58
2019-03-01T17:44:49.177Z,69.89
2019-03-01T17:47:16.197Z,70.54
2019-03-01T17:49:42.977Z,70.34
2019-03-01T17:52:30.577Z,69.17
2019-03-01T17:55:01.411Z,69.19
2019-03-01T17:57:29.190Z,67.37
2019-03-01T17:59:56.708Z,68.09
2019-03-01T18:02:23.765Z,67.74
2019-03-01T18:04:50.603Z,67.08
2019-03-01T18:07:17.763Z,66.41
2019-03-01T18:09:44.609Z,66.74
2019-03-01T18:12:11.390Z,68.00
2019-03-01T18:14:38.244Z,67.18
2019-03-01T18:17:05.399Z,66.81
2019-03-01T18:19:32.824Z,66.32
2019-03-01T18:21:59.683Z,65.67
2019-03-01T18:24:26.689Z,66.04
2019-03-01T18:26:53.437Z,67.31
2019-03-01T18:29:20.229Z,68.58
2019-03-01T18:31:46.988Z,68.40
2019-03-01T18:34:13.911Z,67.95
2019-03-01T18:37:03.731Z,68.09
2019-03-01T18:39:30.343Z,68.80
2019-03-01T18:41:59.320Z,69.98
2019-03-01T18:44:27.037Z,69.04
2019-03-01T18:46:56.242Z,69.77
2019-03-01T18:49:24.310Z,70.05
2019-03-01T18:51:51.031Z,70.61
2019-03-01T18:54:17.870Z,71.22
2019-03-01T18:56:44.991Z,71.56
2019-03-01T18:59:11.793Z,71.49
2019-03-01T19:01:38.533Z,72.23
2019-03-01T19:04:05.472Z,72.23
2019-03-01T19:06:32.674Z,73.27
2019-03-01T19:09:00.018Z,73.12
2019-03-01T19:11:26.931Z,74.92
2019-03-01T19:13:55.149Z,73.59
2019-03-01T19:16:25.323Z,74.79
2019-03-01T19:18:52.538Z,74.17
2019-03-01T19:21:20.809Z,74.79
2019-03-01T19:23:47.766Z,73.90
2019-03-01T19:26:14.525Z,73.70
2019-03-01T19:28:41.547Z,74.52
2019-03-01T19:31:08.387Z,73.62
2019-03-01T19:33:37.843Z,73.57
2019-03-01T19:36:04.385Z,73.57
2019-03-01T19:38:31.196Z,74.79
2019-03-01T19:40:58.039Z,74.25
2019-03-01T19:43:25.578Z,74.09
2019-03-01T19:45:52.533Z,74.36
2019-03-01T19:48:19.273Z,74.04
2019-03-01T19:50:46.178Z,74.26
2019-03-01T19:53:13.500Z,73.71
2019-03-01T19:55:40.249Z,74.62
2019-03-01T19:58:08.657Z,73.71
2019-03-01T20:00:35.745Z,74.28
2019-03-01T20:03:02.481Z,74.20
2019-03-01T20:05:31.988Z,73.88
2019-03-01T20:07:58.124Z,73.81
2019-03-01T20:10:25.887Z,73.98
2019-03-01T20:12:53.196Z,73.86
2019-03-01T20:15:22.246Z,74.09
2019-03-01T20:17:49.780Z,74.75
2019-03-01T20:20:18.284Z,73.35
2019-03-01T20:22:46.168Z,74.27
2019-03-01T20:25:16.003Z,74.35
2019-03-01T20:27:42.313Z,74.70
2019-03-01T20:30:16.429Z,75.11
2019-03-01T20:32:43.160Z,74.72
2019-03-01T20:35:12.877Z,75.74
2019-03-01T20:37:40.064Z,75.28
2019-03-01T20:40:09.752Z,74.08
2019-03-01T20:42:36.936Z,75.46
2019-03-01T20:45:05.167Z,75.83
2019-03-01T20:47:31.978Z,75.71
2019-03-01T20:49:58.844Z,75.97
2019-03-01T20:52:25.878Z,76.08
2019-03-01T20:54:52.995Z,76.12
2019-03-01T20:57:19.863Z,75.21
2019-03-01T20:59:46.962Z,76.04
2019-03-01T21:02:34.823Z,76.13
2019-03-01T21:05:01.648Z,76.83
2019-03-01T21:07:28.998Z,75.99
2019-03-01T21:09:56.076Z,77.18
2019-03-01T21:12:22.807Z,78.08
2019-03-01T21:14:49.447Z,76.72
2019-03-01T21:17:16.852Z,77.22
2019-03-01T21:19:45.005Z,77.55
2019-03-01T21:22:12.026Z,77.54
2019-03-01T21:24:39.334Z,78.17
2019-03-01T21:27:25.995Z,77.64
2019-03-01T21:29:54.816Z,77.96
2019-03-01T21:32:22.233Z,78.43
2019-03-01T21:34:48.981Z,79.03
2019-03-01T21:37:16.617Z,78.29
2019-03-01T21:39:45.099Z,79.20
2019-03-01T21:42:12.276Z,78.75
2019-03-01T21:44:39.112Z,78.68
2019-03-01T21:47:06.983Z,78.97
2019-03-01T21:49:34.575Z,78.97
2019-03-01T21:52:01.459Z,79.55
2019-03-01T21:54:28.975Z,79.20
2019-03-01T21:56:56.973Z,80.86
2019-03-01T21:59:25.511Z,82.29
2019-03-01T22:01:52.901Z,82.68
2019-03-01T22:04:20.879Z,81.78
2019-03-01T22:06:48.484Z,83.49
2019-03-01T22:09:36.997Z,82.04
2019-03-01T22:12:03.803Z,81.86
2019-03-01T22:14:30.525Z,81.13
2019-03-01T22:16:57.252Z,81.46
2019-03-01T22:19:24.105Z,83.34
2019-03-01T22:21:50.747Z,84.62
2019-03-01T22:24:17.766Z,85.72
2019-03-01T22:26:46.652Z,86.14
2019-03-01T22:29:13.380Z,85.79
2019-03-01T22:31:40.121Z,86.32
2019-03-01T22:34:07.308Z,84.60
2019-03-01T22:36:34.043Z,83.80
2019-03-01T22:39:01.154Z,83.65
2019-03-01T22:41:28.234Z,83.78
2019-03-01T22:43:54.925Z,83.80
2019-03-01T22:46:24.832Z,83.51
2019-03-01T22:48:56.353Z,83.25
2019-03-01T22:51:19.793Z,83.10
2019-03-01T22:53:48.533Z,82.63
2019-03-01T22:56:15.604Z,83.13
2019-03-01T22:58:42.338Z,83.28
2019-03-01T23:01:49.730Z,83.07
2019-03-01T23:04:16.463Z,82.58
2019-03-01T23:06:43.455Z,82.79
2019-03-01T23:09:14.071Z,82.56
2019-03-01T23:11:40.908Z,82.68
2019-03-01T23:14:07.966Z,83.04
2019-03-01T23:16:35.047Z,83.62
2019-03-01T23:19:02.036Z,84.66
2019-03-01T23:21:28.685Z,86.04
2019-03-01T23:23:55.905Z,86.90
2019-03-01T23:26:24.913Z,87.43
2019-03-01T23:28:53.185Z,85.26
2019-03-01T23:31:20.677Z,86.96
2019-03-01T23:33:48.220Z,87.79
2019-03-01T23:36:15.987Z,86.53
2019-03-01T23:38:43.242Z,84.21
2019-03-01T23:41:11.338Z,84.84
2019-03-01T23:43:39.903Z,87.16
2019-03-01T23:46:06.650Z,87.91
2019-03-01T23:48:33.392Z,88.07
2019-03-01T23:51:00.477Z,86.51
2019-03-01T23:53:27.531Z,85.92
2019-03-01T23:55:55.733Z,86.02
2019-03-01T23:58:23.607Z,86.13
